Raporty najbliższych stacji METAR

 

EPPO - Poznan/Lawica, Poland
Odległość od stacji: Zd 102km
Aktualizacja: 18-09-18 23:00
Bezchmurnie
Bezchmurnie
 Wiatr z Pd
Wiatr: Pd 6 km/h
Temperatura: 17°C
Punkt Rosy: 14°C
Wilgotność: 83%
Ciśnienie: 1015 hPa
Podsumowanie: Bezchmurnie
Widoczność: większa niż 10 km
2018/09/18 21:00 EPPO 182100Z 18003KT CAVOK 17/14 Q1015
EPLL - Łódź, Ziemia Łódzka, Polska
Odległość od stacji: ES 127km
Aktualizacja: 18-09-18 23:00
Bezchmurnie
Bezchmurnie
 Wiatr z zmienny
Wiatr: zmienny 4 km/h
Temperatura: 16°C
Punkt Rosy: 13°C
Wilgotność: 83%
Ciśnienie: 1018 hPa
Podsumowanie: Bezchmurnie
Widoczność: większa niż 10 km
2018/09/18 21:00 EPLL 182100Z VRB02KT CAVOK 16/13 Q1018
EPWR - Wrocław, Dolny Śląsk, Polska
Odległość od stacji: PdZd 198km
Aktualizacja: 18-09-18 23:00
Bezchmurnie
Bezchmurnie
 Wiatr z Pd
Wiatr: Pd 9 km/h
Temperatura: 21°C
Punkt Rosy: 11°C
Wilgotność: 53%
Ciśnienie: 1017 hPa
Podsumowanie: Bezchmurnie
Widoczność: większa niż 10 km
2018/09/18 21:00 EPWR 182100Z 19005KT CAVOK 21/11 Q1017
 
EPWA - Warszawa, Mazowsze, Polska
Odległość od stacji: Ws 209km
Aktualizacja: 18-09-18 23:00
Bezchmurnie
Bezchmurnie
 Wiatr z Pd
Wiatr: Pd 11 km/h
Temperatura: 17°C
Punkt Rosy: 14°C
Wilgotność: 83%
Ciśnienie: 1018 hPa
Podsumowanie: Bezchmurnie
Widoczność: większa niż 10 km
2018/09/18 21:00 EPWA 182100Z 17006KT CAVOK 17/14 Q1018 NOSIG
EPGD - Gdańsk, Pomorze, Polska
Odległość od stacji: Pn 253km
Aktualizacja: 18-09-18 23:00
Bezchmurnie
Bezchmurnie
 Wiatr z zmienny
Wiatr: zmienny 2 km/h
Temperatura: 17°C
Punkt Rosy: 11°C
Wilgotność: 68%
Ciśnienie: 1015 hPa
Podsumowanie: Bezchmurnie
Widoczność: większa niż 10 km
2018/09/18 21:00 EPGD 182100Z VRB01KT CAVOK 17/11 Q1015
EPKT - Katowice, Śląsk, Polska
Odległość od stacji: Pd 270km
Aktualizacja: 18-09-18 23:00
Bezchmurnie
Bezchmurnie
 Wiatr z PdPdZd
Wiatr: PdPdZd 9 km/h
Temperatura: 18°C
Punkt Rosy: 11°C
Wilgotność: 64%
Ciśnienie: 1019 hPa
Podsumowanie: Bezchmurnie
Widoczność: większa niż 10 km
2018/09/18 21:00 EPKT 182100Z 20005KT CAVOK 18/11 Q1019
 
EPSC - Szczecin, Pomorze Zachodnie, Polska
Odległość od stacji: PnZd 329km
Aktualizacja: 18-09-18 23:00
Bezchmurnie
Bezchmurnie
 Wiatr z PdWs
Wiatr: PdWs 15 km/h
Temperatura: 18°C
Punkt Rosy: 11°C
Wilgotność: 64%
Ciśnienie: 1013 hPa
Podsumowanie: Bezchmurnie
Widoczność: większa niż 10 km
2018/09/18 21:00 EPSC 182100Z 14008KT CAVOK 18/11 Q1013
EPBY - Bydgoszcz
Odległość od stacji: Pn 95km
Aktualizacja: 18-09-18 23:00
Bezchmurnie
Bezchmurnie
 Wiatr z WsPdWs
Wiatr: WsPdWs 4 km/h
Temperatura: 15°C
Punkt Rosy: 10°C
Wilgotność: 72%
Ciśnienie: 1015 hPa
Podsumowanie: Bezchmurnie
Widoczność: większa niż 10 km
2018/09/18 21:00 EPBY 182100Z 11002KT CAVOK 15/10 Q1015
EPZG - Zielona Góra, Ziemia Lubuska, Polska
Odległość od stacji: ZdPdZa 235km
Aktualizacja: 18-09-18 23:00
Bezchmurnie
Bezchmurnie
 Wiatr z calm
Wiatr: Cisza
Temperatura: 15°C
Punkt Rosy: 13°C
Wilgotność: 88%
Ciśnienie: 1015 hPa
Podsumowanie: Bezchmurnie
Widoczność: większa niż 10 km
2018/09/18 21:00 EPZG 182100Z 00000KT CAVOK 15/13 Q1015